createdAt,value
2019-04-14T00:01:47.690Z,81.87
2019-04-14T00:04:40.286Z,81.68
2019-04-14T00:07:08.404Z,81.92
2019-04-14T00:09:36.479Z,82.01
2019-04-14T00:12:07.420Z,81.99
2019-04-14T00:14:35.748Z,81.87
2019-04-14T00:17:06.498Z,81.82
2019-04-14T00:19:34.932Z,81.85
2019-04-14T00:22:03.524Z,81.97
2019-04-14T00:24:32.050Z,81.93
2019-04-14T00:27:00.581Z,81.91
2019-04-14T00:29:28.790Z,82.01
2019-04-14T00:31:58.702Z,82.00
2019-04-14T00:35:04.432Z,81.84
2019-04-14T00:37:40.255Z,81.73
2019-04-14T00:40:17.231Z,81.56
2019-04-14T00:43:13.795Z,81.34
2019-04-14T00:45:56.075Z,81.55
2019-04-14T00:48:25.780Z,81.40
2019-04-14T00:50:54.065Z,81.63
2019-04-14T00:53:22.847Z,81.73
2019-04-14T00:55:51.153Z,81.90
2019-04-14T00:58:19.312Z,81.69
2019-04-14T01:00:47.460Z,81.75
2019-04-14T01:03:16.199Z,81.90
2019-04-14T01:05:44.185Z,81.86
2019-04-14T01:08:12.206Z,81.89
2019-04-14T01:10:41.192Z,82.03
2019-04-14T01:13:12.598Z,82.25
2019-04-14T01:15:51.222Z,81.80
2019-04-14T01:18:12.453Z,82.07
2019-04-14T01:20:40.684Z,82.06
2019-04-14T01:23:08.627Z,81.92
2019-04-14T01:25:36.826Z,82.04
2019-04-14T01:28:05.152Z,82.06
2019-04-14T01:30:33.168Z,81.76
2019-04-14T01:33:01.219Z,81.82
2019-04-14T01:35:29.273Z,81.94
2019-04-14T01:37:57.701Z,81.84
2019-04-14T01:40:25.586Z,81.57
2019-04-14T01:42:54.824Z,81.91
2019-04-14T01:45:25.215Z,81.97
2019-04-14T01:47:53.417Z,82.11
2019-04-14T01:50:25.647Z,82.08
2019-04-14T01:53:07.816Z,82.18
2019-04-14T01:55:54.805Z,82.05
2019-04-14T01:58:27.827Z,82.21
2019-04-14T02:01:15.376Z,82.00
2019-04-14T02:03:54.554Z,81.90
2019-04-14T02:06:22.764Z,82.28
2019-04-14T02:08:52.029Z,82.36
2019-04-14T02:11:20.653Z,82.31
2019-04-14T02:13:48.752Z,82.14
2019-04-14T02:16:25.916Z,82.09
2019-04-14T02:18:47.438Z,82.32
2019-04-14T02:21:17.250Z,82.15
2019-04-14T02:23:45.430Z,82.07
2019-04-14T02:26:13.468Z,82.12
2019-04-14T02:28:41.873Z,82.45
2019-04-14T02:31:26.406Z,82.15
2019-04-14T02:34:09.775Z,82.29
2019-04-14T02:36:41.689Z,82.54
2019-04-14T02:39:08.636Z,82.24
2019-04-14T02:41:35.744Z,82.12
2019-04-14T02:44:24.063Z,82.27
2019-04-14T02:46:38.437Z,82.29
2019-04-14T02:49:08.326Z,82.29
2019-04-14T02:51:35.042Z,82.47
2019-04-14T02:54:10.095Z,82.60
2019-04-14T02:56:36.906Z,82.43
2019-04-14T03:04:05.896Z,82.38
2019-04-14T03:06:33.594Z,82.33
2019-04-14T03:09:07.994Z,82.59
2019-04-14T03:11:44.426Z,82.57
2019-04-14T03:14:11.711Z,82.51
2019-04-14T03:17:11.113Z,82.58
2019-04-14T03:19:58.154Z,82.75
2019-04-14T03:23:13.277Z,82.80
2019-04-14T03:25:34.280Z,82.72
2019-04-14T03:31:37.541Z,82.62
2019-04-14T03:34:18.197Z,82.58
2019-04-14T03:41:24.209Z,82.58
2019-04-14T03:44:03.187Z,82.49
2019-04-14T03:46:25.380Z,82.47
2019-04-14T03:48:58.677Z,82.33
2019-04-14T03:53:50.873Z,82.54
2019-04-14T03:56:31.305Z,82.46
2019-04-14T03:58:59.903Z,82.57
2019-04-14T04:01:28.048Z,82.53
2019-04-14T04:03:56.409Z,82.41
2019-04-14T04:06:24.680Z,82.31
2019-04-14T04:08:53.121Z,82.37
2019-04-14T04:11:21.465Z,82.57
2019-04-14T04:13:49.900Z,82.63
2019-04-14T04:16:35.548Z,82.58
2019-04-14T04:19:25.130Z,82.63
2019-04-14T04:22:12.923Z,82.52
2019-04-14T04:24:48.254Z,82.45
2019-04-14T04:27:33.410Z,82.40
2019-04-14T04:30:23.667Z,82.45
2019-04-14T04:33:04.464Z,82.27
2019-04-14T04:35:47.885Z,82.28
2019-04-14T04:38:38.287Z,82.36
2019-04-14T04:41:06.425Z,82.31
2019-04-14T04:43:36.434Z,82.18
2019-04-14T04:46:04.902Z,82.47
2019-04-14T04:48:32.979Z,82.23
2019-04-14T04:51:00.908Z,82.28
2019-04-14T04:53:28.872Z,82.40
2019-04-14T04:55:57.006Z,82.28
2019-04-14T04:58:26.023Z,82.34
2019-04-14T05:00:56.028Z,82.22
2019-04-14T05:03:25.334Z,82.53
2019-04-14T05:09:23.069Z,82.41
2019-04-14T05:12:10.998Z,82.51
2019-04-14T05:14:46.424Z,82.41
2019-04-14T05:17:15.541Z,82.36
2019-04-14T05:19:43.635Z,82.35
2019-04-14T05:22:14.820Z,82.34
2019-04-14T05:24:41.817Z,82.41
2019-04-14T05:27:10.061Z,82.42
2019-04-14T05:29:38.616Z,82.39
2019-04-14T05:32:06.723Z,82.40
2019-04-14T05:34:34.789Z,82.54
2019-04-14T05:37:02.962Z,82.56
2019-04-14T05:39:31.375Z,82.40
2019-04-14T05:42:06.566Z,82.50
2019-04-14T05:44:29.732Z,82.95
2019-04-14T05:46:57.946Z,82.62
2019-04-14T05:49:34.827Z,82.78
2019-04-14T05:51:56.684Z,82.26
2019-04-14T05:54:25.230Z,81.94
2019-04-14T05:56:53.760Z,82.04
2019-04-14T05:59:22.202Z,81.65
2019-04-14T06:01:51.088Z,81.95
2019-04-14T06:04:20.040Z,81.85
2019-04-14T06:06:48.206Z,81.68
2019-04-14T06:09:16.245Z,81.38
2019-04-14T06:11:44.918Z,81.13
2019-04-14T06:14:12.887Z,80.91
2019-04-14T06:16:40.798Z,81.24
2019-04-14T06:19:08.731Z,81.14
2019-04-14T06:21:36.858Z,81.03
2019-04-14T06:24:05.015Z,80.59
2019-04-14T06:26:34.996Z,79.98
2019-04-14T06:29:03.790Z,79.09
2019-04-14T06:31:53.809Z,78.61
2019-04-14T06:34:26.595Z,79.37
2019-04-14T06:37:13.945Z,78.70
2019-04-14T06:39:44.539Z,79.20
2019-04-14T06:42:12.741Z,78.09
2019-04-14T06:44:41.300Z,77.06
2019-04-14T06:47:09.316Z,75.16
2019-04-14T06:49:48.412Z,75.10
2019-04-14T06:52:08.349Z,74.77
2019-04-14T06:54:36.302Z,74.44
2019-04-14T06:57:04.388Z,73.77
2019-04-14T06:59:32.495Z,73.69
2019-04-14T07:02:01.838Z,73.26
2019-04-14T07:04:30.106Z,73.79
2019-04-14T07:06:57.989Z,73.84
2019-04-14T07:09:26.080Z,72.84
2019-04-14T07:11:54.255Z,72.77
2019-04-14T07:14:22.482Z,72.69
2019-04-14T07:16:51.505Z,73.07
2019-04-14T07:19:19.642Z,71.64
2019-04-14T07:21:47.629Z,71.37
2019-04-14T07:24:16.524Z,71.93
2019-04-14T07:26:44.457Z,71.68
2019-04-14T07:29:14.710Z,72.02
2019-04-14T07:32:09.568Z,70.99
2019-04-14T07:34:54.573Z,71.76
2019-04-14T07:37:47.268Z,71.55
2019-04-14T07:40:31.274Z,71.57
2019-04-14T07:43:25.008Z,70.33
2019-04-14T07:46:09.910Z,70.32
2019-04-14T07:48:46.157Z,70.34
2019-04-14T07:51:35.069Z,70.32
2019-04-14T07:54:07.797Z,69.83
2019-04-14T07:57:01.096Z,69.23
2019-04-14T07:59:57.681Z,69.79
2019-04-14T08:02:43.761Z,69.32
2019-04-14T08:05:22.269Z,69.00
2019-04-14T08:07:51.092Z,68.39
2019-04-14T08:10:19.193Z,67.50
2019-04-14T08:12:48.460Z,67.35
2019-04-14T08:15:16.559Z,67.64
2019-04-14T08:17:44.574Z,67.53
2019-04-14T08:20:13.055Z,66.33
2019-04-14T08:22:40.962Z,66.49
2019-04-14T08:25:09.148Z,65.23
2019-04-14T08:27:37.166Z,65.56
2019-04-14T08:30:06.829Z,65.47
2019-04-14T08:32:34.777Z,64.14
2019-04-14T08:35:02.922Z,62.75
2019-04-14T08:37:30.845Z,62.59
2019-04-14T08:39:58.988Z,63.32
2019-04-14T08:42:42.734Z,63.82
2019-04-14T08:45:35.985Z,63.22
2019-04-14T08:48:32.739Z,62.35
2019-04-14T08:51:04.484Z,62.50
2019-04-14T08:53:58.858Z,62.13
2019-04-14T08:56:41.683Z,62.42
2019-04-14T08:59:27.884Z,63.17
2019-04-14T09:02:04.424Z,62.16
2019-04-14T09:04:51.810Z,62.08
2019-04-14T09:07:29.244Z,61.19
2019-04-14T09:10:16.571Z,62.17
2019-04-14T09:12:45.455Z,62.87
2019-04-14T09:15:13.539Z,62.67
2019-04-14T09:17:41.653Z,62.59
2019-04-14T09:20:10.276Z,61.73
2019-04-14T09:22:38.594Z,62.21
2019-04-14T09:25:06.672Z,62.38
2019-04-14T09:27:34.685Z,61.21
2019-04-14T09:30:03.783Z,60.25
2019-04-14T09:32:31.804Z,60.35
2019-04-14T09:34:59.648Z,61.08
2019-04-14T09:37:27.803Z,60.39
2019-04-14T09:39:55.874Z,59.47
2019-04-14T09:42:23.917Z,59.74
2019-04-14T09:44:51.768Z,58.43
2019-04-14T09:47:19.727Z,58.36
2019-04-14T09:49:47.781Z,58.59
2019-04-14T09:52:16.341Z,59.17
2019-04-14T09:54:44.351Z,57.06
2019-04-14T09:57:12.320Z,57.05
2019-04-14T09:59:40.983Z,58.08
2019-04-14T10:02:08.935Z,56.43
2019-04-14T10:04:36.956Z,55.96
2019-04-14T10:07:05.140Z,55.80
2019-04-14T10:09:33.239Z,54.89
2019-04-14T10:12:02.159Z,54.33
2019-04-14T10:14:30.122Z,53.80
2019-04-14T10:16:58.034Z,54.78
2019-04-14T10:19:25.911Z,54.01
2019-04-14T10:21:53.959Z,53.81
2019-04-14T10:24:21.942Z,52.21
2019-04-14T10:26:49.957Z,53.57
2019-04-14T10:29:18.069Z,53.90
2019-04-14T10:31:46.032Z,53.21
2019-04-14T10:34:14.002Z,51.08
2019-04-14T10:36:41.933Z,50.96
2019-04-14T10:39:10.040Z,51.01
2019-04-14T10:41:38.542Z,50.89
2019-04-14T10:44:06.768Z,50.65
2019-04-14T10:46:34.611Z,50.65
2019-04-14T10:49:02.702Z,49.18
2019-04-14T10:51:34.059Z,49.18
2019-04-14T10:54:02.615Z,47.95
2019-04-14T10:56:30.772Z,47.95
2019-04-14T10:58:58.911Z,46.89
2019-04-14T11:01:26.963Z,45.41
2019-04-14T11:03:55.015Z,48.33
2019-04-14T11:06:33.901Z,48.82
2019-04-14T11:09:02.055Z,48.82
2019-04-14T11:11:30.184Z,48.00
2019-04-14T11:13:58.209Z,49.37
2019-04-14T11:16:26.321Z,47.23
2019-04-14T11:18:54.335Z,46.90
2019-04-14T11:21:22.497Z,46.02
2019-04-14T11:23:50.517Z,46.02
2019-04-14T11:26:18.599Z,47.26
2019-04-14T11:28:46.650Z,46.69
2019-04-14T11:31:16.766Z,47.32
2019-04-14T11:34:09.767Z,47.72
2019-04-14T11:36:56.671Z,45.13
2019-04-14T11:39:24.770Z,44.19
2019-04-14T11:41:53.861Z,44.45
2019-04-14T11:44:22.033Z,44.45
2019-04-14T11:46:50.551Z,43.58
2019-04-14T11:49:18.661Z,43.58
2019-04-14T11:51:55.332Z,43.39
2019-04-14T11:54:20.235Z,43.39
2019-04-14T11:56:48.496Z,43.39
2019-04-14T11:59:19.071Z,43.52
2019-04-14T12:01:59.648Z,42.80
2019-04-14T12:04:47.581Z,42.36
2019-04-14T12:07:33.535Z,42.33
2019-04-14T12:10:04.535Z,40.37
2019-04-14T12:12:32.570Z,40.80
2019-04-14T12:15:01.263Z,41.09
2019-04-14T12:17:29.291Z,41.68
2019-04-14T12:19:57.456Z,41.78
2019-04-14T12:22:25.587Z,41.50
2019-04-14T12:24:53.484Z,41.43
2019-04-14T12:27:21.490Z,41.60
2019-04-14T12:29:50.091Z,41.21
2019-04-14T12:32:18.750Z,41.69
2019-04-14T12:34:46.751Z,41.47
2019-04-14T12:37:14.667Z,41.25
2019-04-14T12:39:43.595Z,40.49
2019-04-14T12:42:23.568Z,40.35
2019-04-14T12:45:16.984Z,40.54
2019-04-14T12:47:53.825Z,41.89
2019-04-14T12:50:32.024Z,41.76
2019-04-14T12:53:00.517Z,42.35
2019-04-14T12:55:28.542Z,42.33
2019-04-14T12:57:59.007Z,41.50
2019-04-14T13:00:33.115Z,41.64
2019-04-14T13:03:01.181Z,40.56
2019-04-14T13:05:29.277Z,40.56
2019-04-14T13:07:57.291Z,39.47
2019-04-14T13:10:26.482Z,39.47
2019-04-14T13:12:54.814Z,37.74
2019-04-14T13:15:22.868Z,37.74
2019-04-14T13:17:51.077Z,37.88
2019-04-14T13:20:19.086Z,38.88
2019-04-14T13:22:47.201Z,39.12
2019-04-14T13:25:15.268Z,38.34
2019-04-14T13:27:43.285Z,36.34
2019-04-14T13:30:13.930Z,38.31
2019-04-14T13:32:42.212Z,38.29
2019-04-14T13:35:10.427Z,37.47
2019-04-14T13:37:40.244Z,36.49
2019-04-14T13:40:09.043Z,37.37
2019-04-14T13:42:37.338Z,37.09
2019-04-14T13:45:06.167Z,35.06
2019-04-14T13:47:34.182Z,34.07
2019-04-14T13:50:02.156Z,35.30
2019-04-14T13:52:31.065Z,36.15
2019-04-14T13:54:59.473Z,36.17
2019-04-14T13:57:27.578Z,36.42
2019-04-14T13:59:55.534Z,36.29
2019-04-14T14:02:23.436Z,35.65
2019-04-14T14:04:51.379Z,36.06
2019-04-14T14:07:19.691Z,36.06
2019-04-14T14:09:47.807Z,35.88
2019-04-14T14:12:47.515Z,35.96
2019-04-14T14:15:41.111Z,35.36
2019-04-14T14:18:26.880Z,35.39
2019-04-14T14:21:08.911Z,35.09
2019-04-14T14:23:59.261Z,33.69
2019-04-14T14:26:27.936Z,34.46
2019-04-14T14:28:56.091Z,35.05
2019-04-14T14:31:24.341Z,35.39
2019-04-14T14:33:52.287Z,34.59
2019-04-14T14:36:20.863Z,33.72
2019-04-14T14:38:48.893Z,33.47
2019-04-14T14:41:17.455Z,34.08
2019-04-14T14:43:45.635Z,33.61
2019-04-14T14:46:26.679Z,33.18
2019-04-14T14:49:02.967Z,32.69
2019-04-14T14:51:59.445Z,32.75
2019-04-14T14:54:27.430Z,33.42
2019-04-14T14:56:55.364Z,33.16
2019-04-14T14:59:23.277Z,33.29
2019-04-14T15:01:51.357Z,33.22
2019-04-14T15:04:19.478Z,32.76
2019-04-14T15:06:47.649Z,32.99
2019-04-14T15:09:15.663Z,33.35
2019-04-14T15:11:43.890Z,32.33
2019-04-14T15:14:11.955Z,32.02
2019-04-14T15:16:40.147Z,32.89
2019-04-14T15:19:08.254Z,31.75
2019-04-14T15:21:36.320Z,31.53
2019-04-14T15:24:04.615Z,32.79
2019-04-14T15:26:32.562Z,31.97
2019-04-14T15:29:00.584Z,32.71
2019-04-14T15:31:28.651Z,31.79
2019-04-14T15:33:56.639Z,33.05
2019-04-14T15:36:24.612Z,31.67
2019-04-14T15:38:52.755Z,32.71
2019-04-14T15:41:20.834Z,32.08
2019-04-14T15:43:49.033Z,32.34
2019-04-14T15:46:17.051Z,32.34
2019-04-14T15:48:45.036Z,31.38
2019-04-14T15:51:12.971Z,32.52
2019-04-14T15:53:41.191Z,32.44
2019-04-14T15:56:16.215Z,32.95
2019-04-14T15:58:52.670Z,32.46
2019-04-14T16:01:42.979Z,31.78
2019-04-14T16:04:27.592Z,32.12
2019-04-14T16:07:04.917Z,31.52
2019-04-14T16:09:55.371Z,32.26
2019-04-14T16:12:41.615Z,31.73
2019-04-14T16:15:18.959Z,31.53
2019-04-14T16:17:54.328Z,31.91
2019-04-14T16:20:28.942Z,32.14
2019-04-14T16:22:56.946Z,32.55
2019-04-14T16:25:39.584Z,32.36
2019-04-14T16:28:14.156Z,33.20
2019-04-14T16:31:01.562Z,35.70
2019-04-14T16:33:33.871Z,36.08
2019-04-14T16:36:01.970Z,36.73
2019-04-14T16:38:30.023Z,34.69
2019-04-14T16:40:58.045Z,35.84
2019-04-14T16:43:26.534Z,34.77
2019-04-14T16:45:54.685Z,33.34
2019-04-14T16:48:22.636Z,34.77
2019-04-14T16:50:50.636Z,34.57
2019-04-14T16:53:25.329Z,35.42
2019-04-14T16:56:10.694Z,35.72
2019-04-14T16:58:59.973Z,36.04
2019-04-14T17:01:36.781Z,36.04
2019-04-14T17:04:05.410Z,35.02
2019-04-14T17:06:33.629Z,35.61
2019-04-14T17:09:06.728Z,33.54
2019-04-14T17:11:34.802Z,35.60
2019-04-14T17:14:25.357Z,36.08
2019-04-14T17:17:06.214Z,35.95
2019-04-14T17:19:52.406Z,35.81
2019-04-14T17:22:28.894Z,36.40
2019-04-14T17:25:01.779Z,36.70
2019-04-14T17:27:37.937Z,36.42
2019-04-14T17:30:41.496Z,36.88
2019-04-14T17:33:27.840Z,36.37
2019-04-14T17:36:19.485Z,35.64
2019-04-14T17:38:57.459Z,34.85
2019-04-14T17:41:40.051Z,34.76
2019-04-14T17:44:19.328Z,35.96
2019-04-14T17:47:01.085Z,35.73
2019-04-14T17:49:41.457Z,35.91
2019-04-14T17:52:27.407Z,36.50
2019-04-14T17:55:17.470Z,36.59
2019-04-14T17:57:52.833Z,36.75
2019-04-14T18:00:32.632Z,36.87
2019-04-14T18:03:05.219Z,36.91
2019-04-14T18:05:52.709Z,36.91
2019-04-14T18:08:40.236Z,36.94
2019-04-14T18:11:26.052Z,36.78
2019-04-14T18:13:59.850Z,37.15
2019-04-14T18:16:34.736Z,36.80
2019-04-14T18:19:25.013Z,37.31
2019-04-14T18:21:53.593Z,37.08
2019-04-14T18:24:21.381Z,37.02
2019-04-14T18:26:49.666Z,37.46
2019-04-14T18:29:49.274Z,37.15
2019-04-14T18:32:31.463Z,37.29
2019-04-14T18:35:11.546Z,38.81
2019-04-14T18:37:57.569Z,39.97
2019-04-14T18:40:47.664Z,39.67
2019-04-14T18:43:33.924Z,38.37
2019-04-14T18:46:21.554Z,39.89
2019-04-14T18:48:58.504Z,38.88
2019-04-14T18:51:47.593Z,40.58
2019-04-14T18:54:23.038Z,40.58
2019-04-14T18:57:29.172Z,40.29
2019-04-14T19:00:08.721Z,39.09
2019-04-14T19:02:37.195Z,37.88
2019-04-14T19:05:05.490Z,37.43
2019-04-14T19:07:33.566Z,37.67
2019-04-14T19:10:01.720Z,38.08
2019-04-14T19:12:49.138Z,38.13
2019-04-14T19:15:35.766Z,38.13
2019-04-14T19:18:11.747Z,38.20
2019-04-14T19:20:42.438Z,38.20
2019-04-14T19:23:10.576Z,37.86
2019-04-14T19:25:38.551Z,40.30
2019-04-14T19:28:06.580Z,40.30
2019-04-14T19:30:34.639Z,41.10
2019-04-14T19:33:02.632Z,39.15
2019-04-14T19:35:30.629Z,39.15
2019-04-14T19:37:58.594Z,38.04
2019-04-14T19:40:26.730Z,38.45
2019-04-14T19:42:55.232Z,38.71
2019-04-14T19:45:23.332Z,38.63
2019-04-14T19:47:51.292Z,37.44
2019-04-14T19:50:19.299Z,38.56
2019-04-14T19:52:47.324Z,38.21
2019-04-14T19:55:20.682Z,38.58
2019-04-14T19:57:45.922Z,38.76
2019-04-14T20:00:14.898Z,38.76
2019-04-14T20:02:43.765Z,38.87
2019-04-14T20:05:13.018Z,38.86
2019-04-14T20:07:41.901Z,38.93
2019-04-14T20:10:10.857Z,38.93
2019-04-14T20:12:38.863Z,38.92
2019-04-14T20:15:11.513Z,38.92
2019-04-14T20:17:54.881Z,39.10
2019-04-14T20:20:58.039Z,39.26
2019-04-14T20:23:39.560Z,39.42
2019-04-14T20:26:35.959Z,39.48
2019-04-14T20:29:13.279Z,39.48
2019-04-14T20:31:54.823Z,39.67
2019-04-14T20:34:23.067Z,39.82
2019-04-14T20:36:52.737Z,39.94
2019-04-14T20:39:22.415Z,40.07
2019-04-14T20:41:50.588Z,40.17
2019-04-14T20:44:20.438Z,40.33
2019-04-14T20:46:48.574Z,40.33
2019-04-14T20:49:16.967Z,40.03
2019-04-14T20:51:46.333Z,40.03
2019-04-14T20:54:16.137Z,40.34
2019-04-14T20:56:45.164Z,40.34
2019-04-14T20:59:13.330Z,40.30
2019-04-14T21:01:47.879Z,40.48
2019-04-14T21:04:22.218Z,40.58
2019-04-14T21:07:08.403Z,40.58
2019-04-14T21:09:46.331Z,40.37
2019-04-14T21:12:33.002Z,40.37
2019-04-14T21:15:26.504Z,40.56
2019-04-14T21:18:19.813Z,40.61
2019-04-14T21:21:01.996Z,40.72
2019-04-14T21:23:55.171Z,40.69
2019-04-14T21:26:45.822Z,40.71
2019-04-14T21:29:29.024Z,40.90
2019-04-14T21:32:02.600Z,40.90
2019-04-14T21:34:48.261Z,41.02
2019-04-14T21:37:25.846Z,41.02
2019-04-14T21:40:06.470Z,41.13
2019-04-14T21:42:34.488Z,41.11
2019-04-14T21:45:02.719Z,41.13
2019-04-14T21:47:30.649Z,41.31
2019-04-14T21:49:58.771Z,41.59
2019-04-14T21:52:37.043Z,41.71
2019-04-14T21:55:05.703Z,41.87
2019-04-14T21:57:44.888Z,41.94
2019-04-14T22:00:38.679Z,41.91
2019-04-14T22:03:31.312Z,41.86
2019-04-14T22:06:05.884Z,41.98
2019-04-14T22:08:37.750Z,42.21
2019-04-14T22:11:07.891Z,42.32
2019-04-14T22:13:35.792Z,42.29
2019-04-14T22:16:04.217Z,42.40
2019-04-14T22:18:32.142Z,42.62
2019-04-14T22:21:00.636Z,42.49
2019-04-14T22:23:28.498Z,42.41
2019-04-14T22:25:56.518Z,42.41
2019-04-14T22:28:24.454Z,42.44
2019-04-14T22:30:53.502Z,42.55
2019-04-14T22:33:21.540Z,42.62
2019-04-14T22:35:49.616Z,42.76
2019-04-14T22:38:17.666Z,42.87
2019-04-14T22:40:45.835Z,43.24
2019-04-14T22:43:13.868Z,43.28
2019-04-14T22:45:41.913Z,43.58
2019-04-14T22:48:09.917Z,43.53
2019-04-14T22:50:37.990Z,43.46
2019-04-14T22:53:06.003Z,43.48
2019-04-14T22:55:34.361Z,43.47
2019-04-14T22:58:02.245Z,43.43
2019-04-14T23:00:49.893Z,43.34
2019-04-14T23:03:43.312Z,43.38
2019-04-14T23:06:29.306Z,43.51
2019-04-14T23:09:20.212Z,43.47
2019-04-14T23:12:13.445Z,43.45
2019-04-14T23:14:50.545Z,43.49
2019-04-14T23:17:25.389Z,43.52
2019-04-14T23:20:12.871Z,43.54
2019-04-14T23:23:00.125Z,43.62
2019-04-14T23:25:28.299Z,43.72
2019-04-14T23:27:56.375Z,43.76
2019-04-14T23:30:24.265Z,43.87
2019-04-14T23:32:52.390Z,43.96
2019-04-14T23:35:20.364Z,44.01
2019-04-14T23:37:48.263Z,44.20
2019-04-14T23:40:16.398Z,44.18
2019-04-14T23:42:44.507Z,44.34
2019-04-14T23:45:12.971Z,44.41
2019-04-14T23:47:41.267Z,44.48
2019-04-14T23:50:09.396Z,44.64
2019-04-14T23:52:39.870Z,44.88
2019-04-14T23:55:08.511Z,45.05
2019-04-14T23:57:37.110Z,45.34
